KJFK/JFK METAR and TAF weather

Enter ICAO airport designator
Station Type Date Time Source
KJFK METAR 2020/07/11 23:42 UTC NOAA

KJFK 112342Z 18011G18KT 5SM -RA BR SCT003 BKN015 BKN035CB BKN150 24/23 A2967 RMK AO2 RAB29 TSB09E42 CB NE MOV NE P0000 T02390233


Station Type Date Time Source
KJFK Decoded METAR 2020/07/11 23:42 UTC NOAA

KENNEDY INTERNATIONAL AIRPORT , NY, United States (KJFK) 40-38N 073-46W 9M
Jul 11, 2020 - 07:42 PM EDT / 2020.07.11 2342 UTC
Wind: from the S (180 degrees) at 13 MPH (11 KT) gusting to 21 MPH (18 KT):0
Visibility: 5 mile(s):0
Sky conditions: mostly cloudy
Weather: light rain; mist; Cumulonimbus clouds observed
Precipitation last hour: A trace
Temperature: 75.0 F (23.9 C)
Dew Point: 73.9 F (23.3 C)
Relative Humidity: 96%
Pressure (altimeter): 29.67 in. Hg (1004 hPa)
ob: KJFK 112342Z 18011G18KT 5SM -RA BR SCT003 BKN015 BKN035CB BKN150 24/23 A2967 RMK AO2 RAB29 TSB09E42 CB NE MOV NE P0000 T02390233
cycle: 23

Station Type Date Time Source
KJFK TAF 2020/07/11 21:45 UTC NOAA

TAF
AMD KJFK 112036Z 1121/1224 17014G22KT P6SM VCSH FEW005 SCT035
FM112300 20013KT P6SM VCTS SCT050CB
TEMPO 1200/1202 2SM +TSRA SCT020 BKN035CB
FM120300 24012KT P6SM SCT050
FM121700 22012KT P6SM SCT050

Example: see airport list